createdAt,value
2022-08-02T00:01:35.086Z,85.21
2022-08-02T00:04:05.859Z,85.24
2022-08-02T00:06:33.183Z,85.51
2022-08-02T00:09:00.006Z,85.87
2022-08-02T00:11:26.791Z,85.94
2022-08-02T00:13:53.548Z,86.01
2022-08-02T00:16:20.593Z,85.93
2022-08-02T00:19:04.945Z,85.99
2022-08-02T00:21:31.921Z,86.24
2022-08-02T00:24:27.923Z,86.34
2022-08-02T00:26:45.653Z,86.34
2022-08-02T00:29:12.449Z,86.38
2022-08-02T00:31:39.320Z,86.52
2022-08-02T00:34:29.207Z,86.36
2022-08-02T00:36:52.881Z,86.48
2022-08-02T00:39:33.609Z,86.48
2022-08-02T00:42:02.445Z,86.45
2022-08-02T00:44:29.238Z,86.66
2022-08-02T00:46:56.148Z,86.72
2022-08-02T00:49:23.134Z,86.70
2022-08-02T00:51:51.298Z,86.97
2022-08-02T00:54:19.782Z,86.92
2022-08-02T00:56:50.852Z,87.02
2022-08-02T00:59:18.372Z,87.01
2022-08-02T01:01:57.195Z,87.29
2022-08-02T01:04:30.032Z,87.15
2022-08-02T01:06:57.826Z,87.22
2022-08-02T01:09:24.533Z,87.49
2022-08-02T01:11:51.347Z,87.71
2022-08-02T01:14:19.325Z,87.67
2022-08-02T01:16:52.706Z,87.84
2022-08-02T01:19:28.595Z,88.13
2022-08-02T01:22:18.418Z,88.48
2022-08-02T01:25:06.450Z,88.45
2022-08-02T01:27:43.231Z,88.56
2022-08-02T01:30:11.556Z,88.36
2022-08-02T01:32:44.875Z,88.30
2022-08-02T01:35:27.258Z,88.26
2022-08-02T01:37:59.010Z,88.11
2022-08-02T01:40:33.498Z,87.97
2022-08-02T01:43:01.187Z,87.81
2022-08-02T01:45:33.102Z,87.76
2022-08-02T01:48:01.634Z,87.78
2022-08-02T01:50:33.550Z,87.62
2022-08-02T01:53:05.704Z,87.60
2022-08-02T01:55:57.601Z,87.39
2022-08-02T01:58:27.202Z,87.13
2022-08-02T02:00:57.613Z,87.37
2022-08-02T02:03:26.068Z,87.35
2022-08-02T02:05:56.938Z,87.24
2022-08-02T02:08:38.135Z,87.20
2022-08-02T02:12:06.462Z,87.24
2022-08-02T02:13:53.347Z,87.03
2022-08-02T02:16:22.511Z,87.11
2022-08-02T02:18:51.646Z,87.48
2022-08-02T02:21:18.982Z,87.26
2022-08-02T02:23:45.740Z,87.20
2022-08-02T02:26:16.847Z,87.27
2022-08-02T02:28:57.652Z,87.32
2022-08-02T02:31:26.697Z,87.73
2022-08-02T02:34:01.243Z,87.86
2022-08-02T02:36:29.702Z,88.16
2022-08-02T02:39:00.858Z,88.09
2022-08-02T02:41:29.166Z,88.08
2022-08-02T02:43:58.441Z,88.00
2022-08-02T02:46:27.083Z,88.12
2022-08-02T02:48:55.120Z,87.99
2022-08-02T02:51:23.221Z,87.89
2022-08-02T02:54:30.196Z,87.76
2022-08-02T02:56:41.063Z,87.55
2022-08-02T02:59:09.191Z,87.58
2022-08-02T03:01:56.685Z,87.46
2022-08-02T03:04:25.097Z,87.36
2022-08-02T03:06:52.051Z,87.20
2022-08-02T03:09:18.985Z,87.08
2022-08-02T03:11:46.696Z,86.96
2022-08-02T03:14:13.882Z,86.63
2022-08-02T03:16:49.245Z,86.88
2022-08-02T03:19:16.625Z,86.81
2022-08-02T03:21:44.103Z,86.49
2022-08-02T03:24:11.490Z,86.45
2022-08-02T03:26:38.762Z,86.16
2022-08-02T03:29:09.784Z,85.94
2022-08-02T03:31:40.573Z,85.54
2022-08-02T03:34:07.828Z,85.56
2022-08-02T03:36:36.195Z,85.27
2022-08-02T03:39:04.399Z,84.74
2022-08-02T03:41:32.078Z,84.52
2022-08-02T03:43:59.913Z,84.32
2022-08-02T03:46:27.345Z,83.99
2022-08-02T03:48:55.997Z,83.61
2022-08-02T03:51:23.473Z,83.26
2022-08-02T03:53:50.736Z,83.27
2022-08-02T03:56:17.577Z,82.92
2022-08-02T03:58:49.018Z,82.26
2022-08-02T04:01:16.577Z,82.28
2022-08-02T04:03:43.597Z,81.82
2022-08-02T04:06:10.465Z,81.42
2022-08-02T04:08:38.755Z,80.93
2022-08-02T04:11:25.572Z,80.67
2022-08-02T04:13:54.131Z,80.43
2022-08-02T04:16:43.412Z,80.19
2022-08-02T04:19:15.490Z,79.77
2022-08-02T04:21:51.293Z,79.42
2022-08-02T04:24:32.391Z,78.93
2022-08-02T04:27:06.740Z,78.52
2022-08-02T04:29:49.026Z,78.02
2022-08-02T04:32:17.368Z,77.19
2022-08-02T04:35:11.348Z,76.81
2022-08-02T04:37:33.639Z,76.29
2022-08-02T04:40:01.073Z,76.13
2022-08-02T04:42:27.913Z,76.05
2022-08-02T04:44:54.788Z,76.08
2022-08-02T04:47:40.017Z,76.19
2022-08-02T04:50:09.545Z,76.23
2022-08-02T04:52:36.405Z,76.30
2022-08-02T04:55:03.617Z,76.24
2022-08-02T04:57:52.599Z,76.37
2022-08-02T05:00:20.543Z,76.08
2022-08-02T05:02:48.339Z,76.02
2022-08-02T05:05:15.771Z,75.91
2022-08-02T05:07:42.569Z,75.65
2022-08-02T05:10:09.727Z,75.46
2022-08-02T05:12:38.690Z,75.14
2022-08-02T05:15:06.114Z,74.73
2022-08-02T05:17:32.859Z,74.21
2022-08-02T05:19:59.739Z,74.09
2022-08-02T05:22:26.592Z,73.90
2022-08-02T05:24:53.607Z,73.82
2022-08-02T05:27:21.555Z,73.82
2022-08-02T05:29:53.943Z,74.06
2022-08-02T05:32:25.871Z,73.96
2022-08-02T05:34:53.404Z,74.03
2022-08-02T05:37:20.203Z,74.12
2022-08-02T05:39:55.850Z,74.12
2022-08-02T05:42:23.866Z,74.31
2022-08-02T05:44:50.833Z,74.29
2022-08-02T05:47:17.628Z,73.88
2022-08-02T05:49:44.363Z,74.04
2022-08-02T05:52:17.232Z,74.18
2022-08-02T05:55:02.209Z,74.23
2022-08-02T05:57:44.156Z,74.55
2022-08-02T06:00:16.194Z,74.78
2022-08-02T06:02:42.978Z,75.01
2022-08-02T06:05:13.649Z,75.24
2022-08-02T06:07:45.430Z,75.58
2022-08-02T06:10:14.370Z,75.69
2022-08-02T06:12:56.418Z,76.20
2022-08-02T06:15:23.284Z,76.20
2022-08-02T06:17:50.732Z,76.83
2022-08-02T06:20:18.467Z,77.53
2022-08-02T06:22:46.940Z,78.14
2022-08-02T06:25:49.862Z,78.57
2022-08-02T06:28:03.727Z,79.83
2022-08-02T06:30:39.069Z,81.11
2022-08-02T06:33:05.796Z,81.99
2022-08-02T06:35:45.053Z,82.52
2022-08-02T06:38:19.749Z,83.06
2022-08-02T06:40:55.818Z,83.40
2022-08-02T06:43:47.507Z,84.28
2022-08-02T06:46:57.043Z,84.67
2022-08-02T06:49:02.140Z,85.33
2022-08-02T06:51:29.970Z,85.89
2022-08-02T06:53:56.796Z,85.98
2022-08-02T06:56:23.646Z,86.26
2022-08-02T06:58:50.805Z,86.43
2022-08-02T07:01:20.099Z,86.47
2022-08-02T07:03:46.949Z,86.77
2022-08-02T07:06:13.906Z,86.89
2022-08-02T07:08:40.882Z,87.09
2022-08-02T07:11:09.466Z,86.81
2022-08-02T07:13:39.796Z,86.67
2022-08-02T07:16:07.485Z,86.05
2022-08-02T07:18:34.728Z,85.78
2022-08-02T07:21:05.377Z,84.99
2022-08-02T07:23:35.554Z,84.00
2022-08-02T07:26:05.357Z,82.84
2022-08-02T07:28:32.910Z,82.01
2022-08-02T07:30:59.683Z,81.08
2022-08-02T07:33:38.220Z,80.41
2022-08-02T07:36:08.839Z,79.49
2022-08-02T07:38:36.801Z,78.27
2022-08-02T07:41:04.682Z,77.46
2022-08-02T07:43:31.603Z,76.91
2022-08-02T07:46:01.072Z,76.26
2022-08-02T07:48:28.145Z,76.09
2022-08-02T07:50:54.955Z,75.65
2022-08-02T07:53:49.780Z,75.33
2022-08-02T07:56:09.542Z,75.35
2022-08-02T07:58:36.434Z,75.02
2022-08-02T08:01:04.680Z,74.65
2022-08-02T08:03:31.547Z,74.51
2022-08-02T08:05:58.478Z,74.79
2022-08-02T08:08:25.242Z,74.49
2022-08-02T08:10:52.012Z,73.79
2022-08-02T08:13:18.991Z,73.21
2022-08-02T08:15:51.572Z,73.57
2022-08-02T08:18:20.596Z,73.33
2022-08-02T08:20:47.511Z,73.60
2022-08-02T08:23:14.437Z,73.88
2022-08-02T08:25:41.515Z,74.20
2022-08-02T08:28:09.359Z,74.53
2022-08-02T08:30:36.600Z,74.60
2022-08-02T08:33:04.533Z,74.61
2022-08-02T08:35:31.387Z,75.02
2022-08-02T08:37:58.170Z,76.09
2022-08-02T08:40:26.133Z,76.39
2022-08-02T08:42:53.154Z,76.38
2022-08-02T08:45:19.906Z,75.98
2022-08-02T08:47:52.910Z,76.29
2022-08-02T08:50:25.147Z,76.09
2022-08-02T08:53:04.017Z,76.83
2022-08-02T08:55:32.532Z,76.87
2022-08-02T08:58:01.343Z,77.30
2022-08-02T09:00:30.466Z,77.58
2022-08-02T09:02:57.978Z,78.02
2022-08-02T09:05:25.544Z,77.85
2022-08-02T09:07:53.317Z,78.49
2022-08-02T09:10:32.280Z,78.33
2022-08-02T09:13:39.098Z,78.44
2022-08-02T09:16:12.811Z,78.41
2022-08-02T09:18:45.607Z,78.87
2022-08-02T09:21:13.769Z,79.18
2022-08-02T09:23:51.749Z,79.68
2022-08-02T09:26:19.815Z,79.45
2022-08-02T09:28:50.313Z,79.45
2022-08-02T09:31:24.570Z,79.81
2022-08-02T09:33:59.257Z,79.21
2022-08-02T09:36:28.288Z,79.09
2022-08-02T09:39:06.615Z,79.06
2022-08-02T09:41:41.291Z,79.55
2022-08-02T09:44:16.113Z,79.82
2022-08-02T09:46:45.072Z,80.19
2022-08-02T09:49:14.849Z,80.55
2022-08-02T09:51:50.488Z,80.77
2022-08-02T09:54:29.120Z,80.63
2022-08-02T09:56:58.461Z,80.72
2022-08-02T09:59:27.611Z,80.76
2022-08-02T10:02:01.758Z,80.36
2022-08-02T10:04:32.095Z,79.94
2022-08-02T10:07:04.597Z,80.50
2022-08-02T10:09:32.261Z,80.17
2022-08-02T10:12:00.036Z,79.89
2022-08-02T10:14:27.915Z,78.94
2022-08-02T10:16:57.385Z,78.67
2022-08-02T10:20:00.870Z,78.84
2022-08-02T10:22:14.163Z,78.92
2022-08-02T10:24:47.498Z,79.31
2022-08-02T10:27:20.575Z,79.04
2022-08-02T10:29:53.630Z,79.49
2022-08-02T10:32:37.802Z,79.73
2022-08-02T10:35:18.723Z,79.89
2022-08-02T10:37:58.113Z,80.12
2022-08-02T10:40:26.905Z,77.73
2022-08-02T10:43:00.865Z,78.79
2022-08-02T10:45:29.283Z,79.53
2022-08-02T10:48:00.563Z,79.42
2022-08-02T10:50:46.735Z,80.21
2022-08-02T10:53:30.452Z,80.31
2022-08-02T10:56:06.048Z,80.66
2022-08-02T10:58:36.273Z,81.15
2022-08-02T11:01:39.605Z,81.48
2022-08-02T11:04:10.646Z,81.65
2022-08-02T11:07:10.860Z,81.21
2022-08-02T11:09:38.299Z,80.67
2022-08-02T11:12:19.669Z,81.20
2022-08-02T11:15:01.229Z,81.92
2022-08-02T11:17:38.245Z,82.13
2022-08-02T11:20:11.017Z,81.42
2022-08-02T11:22:39.159Z,81.15
2022-08-02T11:25:24.377Z,80.59
2022-08-02T11:27:51.803Z,80.59
2022-08-02T11:30:26.499Z,80.01
2022-08-02T11:33:00.816Z,79.41
2022-08-02T11:35:36.115Z,79.05
2022-08-02T11:38:16.444Z,78.02
2022-08-02T11:40:45.230Z,78.34
2022-08-02T11:43:23.493Z,77.82
2022-08-02T11:45:52.566Z,78.20
2022-08-02T11:48:33.675Z,78.02
2022-08-02T11:51:04.823Z,77.79
2022-08-02T11:53:41.577Z,77.75
2022-08-02T11:56:08.602Z,76.01
2022-08-02T11:58:35.406Z,76.73
2022-08-02T12:01:02.576Z,76.61
2022-08-02T12:03:37.744Z,74.82
2022-08-02T12:06:10.848Z,75.07
2022-08-02T12:08:43.744Z,74.59
2022-08-02T12:11:21.599Z,75.34
2022-08-02T12:13:56.781Z,75.75
2022-08-02T12:16:43.737Z,76.21
2022-08-02T12:19:19.550Z,76.14
2022-08-02T12:21:47.118Z,76.99
2022-08-02T12:24:26.890Z,77.18
2022-08-02T12:26:53.673Z,76.86
2022-08-02T12:29:57.904Z,76.28
2022-08-02T12:32:24.967Z,75.50
2022-08-02T12:35:02.926Z,75.90
2022-08-02T12:37:29.762Z,75.73
2022-08-02T12:39:56.516Z,76.01
2022-08-02T12:42:23.421Z,75.91
2022-08-02T12:45:00.468Z,75.95
2022-08-02T12:47:35.879Z,75.68
2022-08-02T12:50:21.458Z,75.81
2022-08-02T12:52:49.792Z,75.84
2022-08-02T12:55:16.733Z,75.48
2022-08-02T12:58:02.962Z,74.69
2022-08-02T13:00:35.734Z,74.46
2022-08-02T13:03:03.867Z,74.59
2022-08-02T13:05:53.659Z,74.11
2022-08-02T13:08:22.601Z,73.84
2022-08-02T13:10:49.601Z,73.89
2022-08-02T13:13:16.472Z,74.01
2022-08-02T13:15:48.990Z,73.80
2022-08-02T13:18:18.474Z,72.02
2022-08-02T13:20:45.632Z,71.68
2022-08-02T13:23:21.011Z,70.77
2022-08-02T13:25:48.342Z,70.28
2022-08-02T13:28:19.886Z,70.43
2022-08-02T13:30:47.236Z,70.72
2022-08-02T13:33:14.613Z,71.24
2022-08-02T13:35:42.456Z,71.35
2022-08-02T13:38:09.277Z,72.01
2022-08-02T13:41:04.392Z,72.91
2022-08-02T13:43:52.818Z,73.04
2022-08-02T13:46:28.968Z,73.57
2022-08-02T13:48:57.156Z,73.88
2022-08-02T13:51:24.023Z,73.53
2022-08-02T13:53:50.837Z,73.82
2022-08-02T13:56:17.821Z,74.39
2022-08-02T13:58:44.694Z,74.54
2022-08-02T14:01:11.684Z,74.49
2022-08-02T14:04:07.329Z,74.79
2022-08-02T14:06:25.716Z,75.29
2022-08-02T14:08:53.080Z,76.34
2022-08-02T14:11:19.974Z,77.42
2022-08-02T14:13:46.746Z,78.61
2022-08-02T14:16:13.611Z,80.72
2022-08-02T14:18:40.469Z,81.83
2022-08-02T14:21:07.249Z,82.54
2022-08-02T14:23:50.358Z,83.19
2022-08-02T14:26:26.937Z,84.10
2022-08-02T14:28:55.566Z,84.75
2022-08-02T14:31:22.513Z,84.84
2022-08-02T14:33:49.381Z,85.07
2022-08-02T14:36:16.182Z,84.78
2022-08-02T14:38:55.252Z,84.56
2022-08-02T14:41:22.745Z,84.04
2022-08-02T14:44:04.954Z,84.26
2022-08-02T14:46:32.931Z,84.05
2022-08-02T14:49:03.703Z,83.93
2022-08-02T14:51:34.741Z,83.84
2022-08-02T14:54:03.603Z,83.72
2022-08-02T14:56:31.849Z,83.69
2022-08-02T14:58:59.009Z,83.57
2022-08-02T15:01:26.474Z,83.56
2022-08-02T15:03:58.912Z,84.20
2022-08-02T15:06:32.111Z,84.73
2022-08-02T15:09:00.003Z,85.21
2022-08-02T15:11:26.993Z,85.45
2022-08-02T15:13:53.826Z,86.12
2022-08-02T15:16:28.940Z,86.88
2022-08-02T15:19:06.488Z,86.91
2022-08-02T15:21:52.485Z,87.53
2022-08-02T15:24:20.495Z,88.22
2022-08-02T15:26:48.407Z,88.74
2022-08-02T15:29:15.212Z,89.22
2022-08-02T15:31:42.069Z,89.30
2022-08-02T15:34:09.670Z,89.92
2022-08-02T15:36:36.475Z,89.62
2022-08-02T15:39:03.665Z,89.07
2022-08-02T15:41:30.507Z,88.95
2022-08-02T15:44:00.630Z,88.61
2022-08-02T15:46:30.831Z,88.51
2022-08-02T15:48:59.774Z,88.37
2022-08-02T15:51:27.255Z,88.42
2022-08-02T15:53:54.105Z,88.63
2022-08-02T15:56:24.000Z,88.68
2022-08-02T15:58:56.059Z,88.12
2022-08-02T16:01:32.181Z,88.21
2022-08-02T16:04:07.209Z,88.37
2022-08-02T16:06:37.367Z,88.81
2022-08-02T16:09:04.381Z,88.83
2022-08-02T16:11:31.246Z,88.27
2022-08-02T16:13:59.112Z,87.50
2022-08-02T16:16:29.301Z,87.47
2022-08-02T16:18:57.280Z,86.52
2022-08-02T16:21:24.853Z,86.86
2022-08-02T16:23:59.592Z,87.04
2022-08-02T16:26:31.512Z,87.00
2022-08-02T16:28:59.421Z,87.07
2022-08-02T16:31:26.375Z,86.80
2022-08-02T16:33:56.171Z,87.26
2022-08-02T16:36:25.869Z,87.44
2022-08-02T16:38:54.379Z,88.15
2022-08-02T16:41:22.131Z,89.18
2022-08-02T16:43:49.411Z,89.49
2022-08-02T16:46:16.494Z,90.48
2022-08-02T16:48:51.185Z,91.33
2022-08-02T16:51:19.247Z,91.51
2022-08-02T16:54:00.213Z,91.69
2022-08-02T16:56:30.966Z,92.51
2022-08-02T16:58:59.752Z,92.57
2022-08-02T17:02:10.839Z,93.10
2022-08-02T17:04:16.006Z,93.42
2022-08-02T17:06:51.664Z,93.22
2022-08-02T17:10:01.842Z,93.61
2022-08-02T17:12:09.081Z,94.65
2022-08-02T17:14:54.593Z,94.38
2022-08-02T17:17:22.562Z,95.54
2022-08-02T17:20:01.885Z,95.23
2022-08-02T17:22:29.007Z,96.18
2022-08-02T17:24:56.222Z,96.28
2022-08-02T17:27:23.058Z,96.60
2022-08-02T17:29:49.902Z,96.47
2022-08-02T17:32:18.637Z,96.78
2022-08-02T17:34:48.818Z,96.96
2022-08-02T17:37:23.617Z,97.17
2022-08-02T17:39:51.879Z,97.16
2022-08-02T17:42:23.156Z,98.01
2022-08-02T17:44:52.063Z,98.60
2022-08-02T17:47:19.468Z,98.33
2022-08-02T17:49:48.396Z,98.55
2022-08-02T17:52:51.473Z,98.22
2022-08-02T17:55:04.844Z,98.33
2022-08-02T17:57:57.045Z,99.18
2022-08-02T18:00:18.914Z,99.11
2022-08-02T18:05:39.040Z,98.93
2022-08-02T18:08:08.803Z,98.99
2022-08-02T18:10:35.651Z,99.48
2022-08-02T18:13:03.820Z,99.73
2022-08-02T18:15:32.561Z,99.75
2022-08-02T18:18:00.656Z,99.80
2022-08-02T18:20:27.431Z,99.89
2022-08-02T18:22:58.500Z,99.58
2022-08-02T18:25:36.297Z,99.62
2022-08-02T18:28:05.295Z,99.22
2022-08-02T18:30:34.061Z,99.34
2022-08-02T18:33:57.333Z,99.38
2022-08-02T18:35:48.315Z,99.34
2022-08-02T18:38:15.606Z,99.43
2022-08-02T18:40:42.937Z,99.41
2022-08-02T18:43:17.647Z,99.36
2022-08-02T18:46:05.559Z,99.26
2022-08-02T18:48:31.651Z,99.09
2022-08-02T18:50:58.488Z,99.21
2022-08-02T18:53:39.163Z,99.42
2022-08-02T18:56:20.130Z,99.35
2022-08-02T18:58:52.923Z,99.25
2022-08-02T19:01:21.786Z,99.06
2022-08-02T19:03:58.783Z,98.91
2022-08-02T19:06:28.865Z,99.26
2022-08-02T19:09:05.701Z,99.11
2022-08-02T19:14:27.810Z,98.81
2022-08-02T19:16:59.581Z,98.93
2022-08-02T19:19:28.856Z,98.90
2022-08-02T19:22:17.711Z,98.98
2022-08-02T19:24:46.182Z,98.89
2022-08-02T19:27:20.701Z,98.89
2022-08-02T19:29:53.535Z,98.83
2022-08-02T19:32:41.830Z,98.56
2022-08-02T19:35:19.686Z,98.48
2022-08-02T19:38:05.278Z,98.80
2022-08-02T19:40:32.224Z,98.64
2022-08-02T19:44:24.504Z,98.72
2022-08-02T19:45:50.644Z,98.86
2022-08-02T19:48:24.255Z,99.04
2022-08-02T19:50:56.773Z,98.96
2022-08-02T19:53:28.925Z,99.05
2022-08-02T19:56:13.451Z,98.71
2022-08-02T19:58:51.234Z,98.65
2022-08-02T20:01:21.907Z,98.94
2022-08-02T20:03:53.053Z,98.78
2022-08-02T20:06:28.542Z,98.56
2022-08-02T20:08:59.317Z,98.64
2022-08-02T20:11:29.208Z,98.46
2022-08-02T20:14:03.405Z,98.49
2022-08-02T20:16:33.049Z,98.60
2022-08-02T20:19:01.249Z,98.30
2022-08-02T20:21:35.666Z,98.24
2022-08-02T20:24:07.250Z,98.09
2022-08-02T20:26:35.196Z,98.12
2022-08-02T20:29:04.387Z,98.17
2022-08-02T20:31:31.369Z,98.02
2022-08-02T20:33:58.170Z,97.98
2022-08-02T20:36:26.699Z,97.81
2022-08-02T20:38:54.529Z,97.51
2022-08-02T20:41:22.932Z,97.32
2022-08-02T20:43:50.333Z,97.10
2022-08-02T20:46:17.466Z,97.40
2022-08-02T20:48:45.079Z,97.44
2022-08-02T20:51:13.977Z,97.41
2022-08-02T20:53:54.734Z,97.53
2022-08-02T20:56:22.016Z,97.93
2022-08-02T20:58:52.358Z,97.59
2022-08-02T21:01:21.177Z,97.77
2022-08-02T21:03:58.728Z,97.74
2022-08-02T21:06:29.817Z,97.41
2022-08-02T21:08:57.202Z,97.51
2022-08-02T21:11:33.709Z,97.44
2022-08-02T21:14:06.327Z,97.43
2022-08-02T21:16:35.030Z,97.46
2022-08-02T21:19:02.142Z,97.34
2022-08-02T21:21:29.745Z,97.17
2022-08-02T21:23:57.383Z,96.91
2022-08-02T21:26:28.390Z,96.84
2022-08-02T21:28:58.183Z,96.59
2022-08-02T21:31:30.057Z,96.53
2022-08-02T21:34:00.508Z,96.51
2022-08-02T21:36:33.263Z,96.49
2022-08-02T21:39:04.924Z,96.17
2022-08-02T21:41:38.862Z,96.17
2022-08-02T21:44:17.130Z,96.16
2022-08-02T21:46:45.603Z,95.97
2022-08-02T21:49:14.269Z,95.93
2022-08-02T21:51:42.979Z,95.95
2022-08-02T21:54:18.847Z,95.64
2022-08-02T21:56:48.201Z,95.67
2022-08-02T21:59:16.482Z,95.80
2022-08-02T22:01:52.659Z,95.59
2022-08-02T22:04:21.553Z,95.35
2022-08-02T22:06:49.319Z,95.41
2022-08-02T22:14:55.118Z,95.09
2022-08-02T22:17:50.570Z,94.98
2022-08-02T22:20:14.148Z,94.84
2022-08-02T22:22:42.375Z,94.68
2022-08-02T22:25:10.224Z,95.15
2022-08-02T22:28:34.773Z,95.39
2022-08-02T22:30:41.633Z,95.73
2022-08-02T22:33:33.111Z,96.26
2022-08-02T22:36:01.179Z,96.46
2022-08-02T22:38:28.660Z,96.51
2022-08-02T22:40:55.601Z,96.73
2022-08-02T22:43:23.091Z,97.09
2022-08-02T22:45:50.874Z,97.45
2022-08-02T22:48:18.040Z,97.77
2022-08-02T22:50:44.816Z,98.41
2022-08-02T22:53:12.291Z,98.28
2022-08-02T22:55:41.834Z,98.53
2022-08-02T22:58:09.589Z,98.43
2022-08-02T22:58:42.979Z,98.77
2022-08-02T22:58:57.183Z,99.16
2022-08-02T22:59:10.806Z,95.34
2022-08-02T22:59:12.191Z,95.32
2022-08-02T23:00:36.441Z,98.60
2022-08-02T23:03:06.858Z,98.88
2022-08-02T23:05:34.389Z,98.73
2022-08-02T23:08:01.493Z,98.70
2022-08-02T23:10:28.399Z,98.82
2022-08-02T23:12:59.001Z,98.67
2022-08-02T23:15:48.566Z,98.71
2022-08-02T23:18:33.922Z,98.71
2022-08-02T23:21:00.733Z,98.87
2022-08-02T23:23:27.497Z,98.86
2022-08-02T23:25:54.288Z,98.92
2022-08-02T23:28:21.039Z,98.92
2022-08-02T23:30:47.858Z,98.90
2022-08-02T23:33:14.864Z,98.82
2022-08-02T23:35:41.681Z,98.94
2022-08-02T23:38:08.608Z,98.69
2022-08-02T23:40:40.453Z,98.70
2022-08-02T23:43:13.995Z,98.80
2022-08-02T23:45:48.570Z,98.26
2022-08-02T23:48:15.487Z,98.51
2022-08-02T23:50:42.213Z,98.37
2022-08-02T23:53:09.042Z,98.28
2022-08-02T23:55:35.824Z,98.35
2022-08-02T23:58:02.577Z,98.09
